Portada
METAR-TAF:

METAR-TAF

Aeropuertos :

Aeropuerto de Alicante-Elche

Alicante, España

latitud: 38-17N, longitud: 000-33W, altitud: 43 m

Observación

El informe se hizo hace 44 minutos, a las 22:30 UTC
Viento 10 kt del oeste
Temperatura 15°C
Humedad 63%
Presión 1022 hPa
Visibilidad 10 km o más
sin nubes por debajo de 1500 m y sin presencia de cumulonimbus.

METAR: LEAL 152230Z 27010KT CAVOK 15/08 Q1022 NOSIG

Hora: 00:14 (23:14 UTC)

Pronóstico

El informe se hizo hace 6 horas y 14 minutos, a las 17:00 UTC
Pronóstico válido del 15 a las 18 UTC al 16 a las 18 UTC
Viento 10 kt del oeste-noroeste
Visibilidad 10 km o más
Escasas nubes a una altura de 5000 ft
Temporalmente
del 16 a las 02 UTC al 16 a las 05 UTC
Viento 15 kt del oeste-noroeste con ráfagas de 25 kt
Temporalmente
del 16 a las 08 UTC al 16 a las 13 UTC
Viento 8 kt del oeste-suroeste

TAF: LEAL 151700Z 1518/1618 30010KT 9999 FEW050 TX21/1612Z TN10/1606Z TEMPO 1602/1605 30015G25KT TEMPO 1608/1613 24008KT

Observaciones y pronósticos meteorológicos de más de 4000 aeropuertos (mensajes METAR y TAF).

Los puntos amarillos y rojos representan las estaciones disponibles.

Ponga el ratón en el punto deseado para ver el nombre de la estación.

Haga clic para ver las observaciones y los pronósticos meteorológicos.

Para cambiar el mapa : haga clic en los botones verdes con una cruz de color negro para hacer un zoom, en el botón verde con un guión para alejar o en las flechas verdes para mapas adyacentes.


METAR-TAF: